• Join FlightAware (Why Join?)
  • Login
  • US Flag 
09:58AM EDT


 

Airport Tracker/Info


-or-


 

Live Flight TrackerFlight Track Log ✈ AAL1624 ✈ 28-Apr-2013 ✈ KLAX - KORD

Flight Track Log - Related Links

Times and Time Zones

All times are in EDT time to prevent confusion due to time zone crossing. See the AAL1624 flight status page for this flight to view local times or setup timezone preferences in your user account.

Time Position Orientation Groundspeed Altitude Reporting Facility
EDT Latitude Longitude Course Direction KTS MPH feet Rate Location/Type
06:41PM 33.9333 -118.4333 46° Northeast 173 199 1,300  Level Southern California TRACON
06:41PM 33.9342 -118.4433 276° West 173 199 1,500 1,620 Climbing Los Angeles Center
06:42PM 33.9125 -118.5258 252° West 237 273 3,500 2,340 Climbing Los Angeles Center
06:43PM 34.1208 -118.0918 59° Northeast  Level FlightAware Approximate
06:43PM 33.8522 -118.5725 213° Southwest 275 316 6,400  Level Los Angeles Center
06:44PM 34.1832 -117.9670 59° Northeast  Level FlightAware Approximate
06:44PM 33.8256 -118.5000 114° Southeast 281 323 9,300  Level Los Angeles Center
06:45PM 34.2456 -117.8421 59° Northeast  Level FlightAware Approximate
06:45PM 33.8964 -118.4514 30° Northeast 301 346 11,400  Level Los Angeles Center
06:46PM 34.3223 -117.7304 46° Northeast  Level FlightAware Approximate
06:46PM 33.9664 -118.3733 43° Northeast 347 399 13,400  Level Los Angeles Center
06:47PM 34.0250 -118.2711 55° Northeast 364 419 15,900 2,580 Climbing Los Angeles Center
06:48PM 34.0978 -118.1433 55° Northeast 389 448 18,800 2,400 Climbing Los Angeles Center
06:49PM 34.1600 -118.0333 56° Northeast 394 453 20,900 1,980 Climbing Los Angeles Center
06:50PM 34.2242 -117.9192 56° Northeast 406 467 22,900 1,800 Climbing Los Angeles Center
06:51PM 34.2986 -117.8100 50° Northeast 418 481 24,700 1,560 Climbing Los Angeles Center
06:53PM 34.3753 -117.6994 50° Northeast 427 491 26,200 1,500 Climbing Los Angeles Center
06:54PM 34.4569 -117.5811 50° Northeast 439 505 27,800 1,440 Climbing Los Angeles Center
06:55PM 34.5369 -117.4661 50° Northeast 447 514 29,200 1,380 Climbing Los Angeles Center
06:56PM 34.6156 -117.3497 51° Northeast 450 518 30,700 1,380 Climbing Los Angeles Center
06:57PM 34.7125 -117.2100 50° Northeast 453 521 32,100 1,200 Climbing Los Angeles Center
06:58PM 34.7917 -117.0928 51° Northeast 454 522 33,200 1,020 Climbing Los Angeles Center
06:59PM 34.8731 -116.9733 50° Northeast 459 528 34,300 1,080 Climbing Los Angeles Center
07:00PM 34.9539 -116.8533 51° Northeast 462 532 35,500 1,080 Climbing Los Angeles Center
07:01PM 35.0483 -116.7150 50° Northeast 451 519 36,600 720 Climbing Los Angeles Center
07:02PM 35.1281 -116.5967 51° Northeast 450 518 37,000 180 Climbing Los Angeles Center
07:03PM 35.2081 -116.4792 50° Northeast 451 519 37,000  Level Los Angeles Center
07:04PM 35.2875 -116.3611 50° Northeast 452 520 37,000  Level Los Angeles Center
07:05PM 35.3672 -116.2419 51° Northeast 452 520 37,000  Level Los Angeles Center
07:06PM 35.4447 -116.1217 52° Northeast 452 520 37,000  Level Los Angeles Center
07:07PM 35.5428 -115.9797 50° Northeast 455 524 37,000  Level Los Angeles Center
07:08PM 35.6219 -115.8603 51° Northeast 450 518 37,000  Level Los Angeles Center
07:09PM 35.7003 -115.7428 51° Northeast 445 512 37,000  Level Los Angeles Center
07:10PM 35.7794 -115.6214 51° Northeast 452 520 37,000  Level Los Angeles Center
07:11PM 35.8592 -115.5003 51° Northeast 455 524 37,000  Level Los Angeles Center
07:12PM 35.9533 -115.3544 51° Northeast 457 526 37,000  Level Los Angeles Center
07:13PM 36.0308 -115.2353 51° Northeast 451 519 37,000  Level Los Angeles Center
07:14PM 36.0975 -115.1056 58° Northeast 453 521 37,000  Level Los Angeles Center
07:15PM 36.1397 -114.9603 70° East 451 519 37,000  Level Los Angeles Center
07:16PM 36.1853 -114.8169 68° East 450 518 37,000  Level Los Angeles Center
07:17PM 36.2375 -114.6433 70° East 450 518 37,000  Level Los Angeles Center
07:18PM 36.2819 -114.4994 69° East 449 517 37,000  Level Los Angeles Center
07:19PM 36.3250 -114.3536 70° East 451 519 37,000  Level Los Angeles Center
07:20PM 36.3697 -114.2078 69° East 452 520 37,000  Level Los Angeles Center
07:21PM 36.4128 -114.0606 70° East 454 522 37,000  Level Los Angeles Center
07:23PM 36.4572 -113.9142 69° East 454 522 37,000  Level Los Angeles Center
07:24PM 36.5086 -113.7372 70° East 454 522 37,000  Level Los Angeles Center
07:25PM 36.5481 -113.6047 70° East 454 522 37,000  Level Los Angeles Center
07:26PM 36.5911 -113.4589 70° East 453 521 37,000  Level Los Angeles Center
07:27PM 36.6422 -113.2831 70° East 453 521 37,000  Level Los Angeles Center
07:28PM 36.6847 -113.1367 70° East 453 521 37,000  Level Los Angeles Center
07:29PM 36.7272 -112.9900 70° East 452 520 37,000  Level Los Angeles Center
07:30PM 36.7728 -112.8442 69° East 454 522 37,000  Level Los Angeles Center
07:31PM 36.8178 -112.6989 69° East 453 521 37,000  Level Los Angeles Center
07:32PM 36.8706 -112.5247 69° East 450 518 37,000  Level Los Angeles Center
07:33PM 36.9142 -112.3789 69° East 451 519 37,000  Level Los Angeles Center
07:34PM 36.9581 -112.2317 70° East 454 522 37,000  Level Los Angeles Center
07:35PM 36.9917 -112.1167 70° East 451 519 37,000  Level Denver Center
07:36PM 37.0364 -111.9694 69° East 453 521 37,000  Level Denver Center
07:37PM 37.0878 -111.7925 70° East 453 521 37,000  Level Denver Center
07:38PM 37.1397 -111.6142 70° East 456 525 37,000  Level Denver Center
07:39PM 37.1917 -111.4361 70° East 455 524 37,000  Level Denver Center
07:40PM 37.2347 -111.2883 70° East 455 524 37,000  Level Denver Center
07:41PM 37.2769 -111.1397 70° East 454 522 37,000  Level Denver Center
07:42PM 37.3186 -110.9925 70° East 450 518 37,000  Level Denver Center
07:43PM 37.3611 -110.8442 70° East 454 522 37,000  Level Denver Center
07:44PM 37.4036 -110.6950 70° East 454 522 37,000  Level Denver Center
07:45PM 37.4544 -110.5153 70° East 455 524 37,000  Level Denver Center
07:46PM 37.4978 -110.3600 71° East 454 522 37,000  Level Denver Center
07:47PM 37.5378 -110.2139 71° East 457 526 37,000  Level Denver Center
07:48PM 37.5778 -110.0686 71° East 458 527 37,000  Level Denver Center
07:50PM 37.6256 -109.8956 71° East 463 533 37,000  Level Denver Center
07:51PM 37.6658 -109.7497 71° East 461 531 37,000  Level Denver Center
07:52PM 37.7125 -109.5772 71° East 464 534 37,000  Level Denver Center
07:53PM 37.7517 -109.4297 71° East 462 532 37,000  Level Denver Center
07:54PM 37.7983 -109.2575 71° East 462 532 37,000  Level Denver Center
07:55PM 37.8367 -109.1089 72° East 463 533 37,000  Level Denver Center
07:56PM 37.8764 -108.9633 71° East 457 526 37,000  Level Denver Center
07:57PM 37.9214 -108.7908 72° East 459 528 37,000  Level Denver Center
07:58PM 37.9600 -108.6433 72° East 460 529 37,000  Level Denver Center
07:59PM 38.0047 -108.4722 72° East 458 527 37,000  Level Denver Center
08:00PM 38.0428 -108.3225 72° East 461 531 37,000  Level Denver Center
08:01PM 38.0856 -108.1533 72° East 468 539 37,000  Level Denver Center
08:02PM 38.1239 -108.0036 72° East 468 539 37,000  Level Denver Center
08:03PM 38.1675 -107.8308 72° East 463 533 37,000  Level Denver Center
08:04PM 38.2050 -107.6786 73° East 469 540 37,000  Level Denver Center
08:05PM 38.2489 -107.5067 72° East 462 532 37,000  Level Denver Center
08:06PM 38.2858 -107.3578 72° East 462 532 37,000  Level Denver Center
08:07PM 38.3283 -107.1867 72° East 464 534 37,000  Level Denver Center
08:08PM 38.3678 -107.0297 72° East 464 534 37,000  Level Denver Center
08:09PM 38.4050 -106.8711 73° East 469 540 37,000  Level Denver Center
08:10PM 38.4431 -106.7139 73° East 467 537 37,000  Level Denver Center
08:11PM 38.4806 -106.5550 73° East 469 540 37,000  Level Denver Center
08:12PM 38.5192 -106.3972 73° East 467 537 37,000  Level Denver Center
08:13PM 38.5639 -106.2072 73° East 469 540 37,000  Level Denver Center
08:14PM 38.6014 -106.0464 73° East 465 535 37,000  Level Denver Center
08:15PM 38.6392 -105.8842 73° East 466 536 37,000  Level Denver Center
08:16PM 38.6689 -105.7508 74° East 465 535 37,000  Level Denver Center
08:17PM 38.7136 -105.5644 73° East 466 536 37,000  Level Denver Center
08:18PM 38.7503 -105.4036 74° East 469 540 37,000  Level Denver Center
08:19PM 38.7853 -105.2419 74° East 469 540 37,000  Level Denver Center
08:20PM 38.8217 -105.0808 74° East 469 540 37,000  Level Denver Center
08:21PM 38.8611 -104.8919 75° East 468 539 37,000  Level Denver Center
08:22PM 38.8858 -104.7281 79° East 466 536 37,000  Level Denver Center
08:24PM 38.9122 -104.5639 78° East 467 537 37,000  Level Denver Center
08:25PM 38.9369 -104.4011 79° East 465 535 37,000  Level Denver Center
08:26PM 38.9622 -104.2369 79° East 467 537 37,000  Level Denver Center
08:27PM 38.9881 -104.0719 79° East 469 540 37,000  Level Denver Center
08:28PM 39.0122 -103.9069 79° East 469 540 37,000  Level Denver Center
08:29PM 39.0411 -103.7150 79° East 468 539 37,000  Level Denver Center
08:30PM 39.0653 -103.5489 79° East 471 542 37,000  Level Denver Center
08:31PM 39.0897 -103.3817 79° East 471 542 37,000  Level Denver Center
08:32PM 39.1183 -103.1869 79° East 472 543 37,000  Level Denver Center
08:33PM 39.1417 -103.0208 80° East 469 540 37,000  Level Denver Center
08:34PM 39.1656 -102.8547 79° East 470 541 37,000  Level Denver Center
08:35PM 39.1897 -102.6794 80° East 471 542 37,000  Level Denver Center
08:36PM 39.2156 -102.4936 80° East 471 542 37,000  Level Denver Center
08:37PM 39.2369 -102.3339 80° East 472 543 37,000  Level Denver Center
08:38PM 39.2608 -102.1475 81° East 472 543 37,000  Level Denver Center
08:40PM 39.2867 -101.9622 80° East 470 541 37,000  Level Denver Center
08:41PM 39.3111 -101.7747 80° East 473 544 37,000  Level Denver Center
08:42PM 39.3375 -101.5744 80° East 468 539 37,000  Level Denver Center
08:43PM 39.3572 -101.4153 81° East 470 541 37,000  Level Denver Center
08:44PM 39.3803 -101.2331 81° East 462 532 37,000  Level Denver Center
08:45PM 39.4000 -101.0750 81° East 466 536 37,000  Level Denver Center
08:46PM 39.4231 -100.8906 81° East 467 537 37,000  Level Denver Center
08:47PM 39.4422 -100.7317 81° East 469 540 37,000  Level Denver Center
08:48PM 39.4614 -100.5719 81° East 470 541 37,000  Level Denver Center
08:49PM 39.4833 -100.3878 81° East 466 536 37,000  Level Denver Center
08:50PM 39.5019 -100.2300 81° East 466 536 37,000  Level Denver Center
08:51PM 39.5242 -100.0439 81° East 468 539 37,000  Level Denver Center
08:52PM 39.5414 -99.8864 82° East 468 539 37,000  Level Denver Center
08:53PM 39.5603 -99.7203 82° East 468 539 37,000  Level Denver Center
08:54PM 39.5789 -99.5547 82° East 467 537 37,000  Level Denver Center
08:55PM 39.5967 -99.3872 82° East 469 540 37,000  Level Denver Center
08:56PM 39.6178 -99.1875 82° East 467 537 37,000  Level Denver Center
08:58PM 39.6533 -98.8567 82° East 467 537 37,000  Level Minneapolis Center
08:59PM 39.6717 -98.6900 82° East 467 537 37,000  Level Minneapolis Center
09:00PM 39.6872 -98.5219 83° East 469 540 37,000  Level Minneapolis Center
09:01PM 39.7086 -98.3206 82° East 469 540 37,000  Level Minneapolis Center
09:02PM 39.7250 -98.1519 83° East 471 542 37,000  Level Minneapolis Center
09:03PM 39.7408 -97.9842 83° East 471 542 37,000  Level Minneapolis Center
09:04PM 39.7578 -97.8144 83° East 473 544 37,000  Level Minneapolis Center
09:05PM 39.7739 -97.6461 83° East 472 543 37,000  Level Minneapolis Center
09:06PM 39.7886 -97.4803 83° East 467 537 37,000  Level Minneapolis Center
09:07PM 39.8078 -97.2783 83° East 468 539 37,000  Level Minneapolis Center
09:08PM 39.8197 -97.1400 84° East 467 537 37,000  Level Minneapolis Center
09:09PM 39.8353 -96.9739 83° East 468 539 37,000  Level Kansas City Center
09:10PM 39.8494 -96.8053 84° East 470 541 37,000  Level Kansas City Center
09:11PM 39.8664 -96.6042 84° East 468 539 37,000  Level Kansas City Center
09:12PM 39.8797 -96.4356 84° East 468 539 37,000  Level Kansas City Center
09:13PM 39.8944 -96.2675 83° East 469 540 37,000  Level Kansas City Center
09:14PM 39.9089 -96.0978 84° East 467 537 37,000  Level Kansas City Center
09:15PM 39.9208 -95.9358 84° East 468 539 37,000  Level Kansas City Center
09:17PM 39.9358 -95.7458 84° East 471 542 37,000  Level Kansas City Center
09:18PM 39.9492 -95.5808 84° East 473 544 37,000  Level Kansas City Center
09:19PM 39.9614 -95.4169 84° East 473 544 37,000  Level Kansas City Center
09:20PM 39.9756 -95.2267 84° East 471 542 37,000  Level Kansas City Center
09:21PM 39.9867 -95.0617 85° East 474 545 37,000  Level Kansas City Center
09:22PM 39.9978 -94.8992 85° East 472 543 37,000  Level Kansas City Center
09:23PM 40.0111 -94.7069 85° East 475 547 37,000  Level Kansas City Center
09:24PM 40.0228 -94.5436 85° East 472 543 37,000  Level Kansas City Center
09:25PM 40.0344 -94.3514 85° East 473 544 37,000  Level Kansas City Center
09:27PM 40.0542 -94.0361 85° East 472 543 37,000  Level Kansas City Center
09:28PM 40.0656 -93.8339 86° East 473 544 37,000  Level Kansas City Center
09:29PM 40.0733 -93.6664 86° East 468 539 37,000  Level Kansas City Center
09:30PM 40.0919 -93.5003 82° East 468 539 37,000  Level Kansas City Center
09:31PM 40.1311 -93.3433 72° East 460 529 37,000  Level Kansas City Center
09:32PM 40.1678 -93.1825 73° East 463 533 37,000  Level Kansas City Center
09:33PM 40.2083 -93.0028 73° East 456 525 37,000  Level Kansas City Center
09:34PM 40.2422 -92.8481 74° East 459 528 37,000  Level Kansas City Center
09:35PM 40.2828 -92.6708 73° East 456 525 37,000  Level Kansas City Center
09:36PM 40.3192 -92.5186 73° East 455 524 37,000  Level Kansas City Center
09:37PM 40.3492 -92.3656 76° East 464 534 37,000  Level Kansas City Center
09:38PM 40.3894 -92.1800 74° East 460 529 37,000 -120 Level Kansas City Center
09:39PM 40.4231 -92.0206 74° East 458 527 36,800 -540 Descending Kansas City Center
09:40PM 40.4564 -91.8625 74° East 455 524 35,900 -960 Descending Kansas City Center
09:41PM 40.4903 -91.6997 75° East 462 532 34,900 -1,080 Descending Kansas City Center
09:42PM 40.5253 -91.5381 74° East 464 534 33,700 -960 Descending Kansas City Center
09:43PM 40.5603 -91.3739 74° East 468 539 33,000 -360 Descending Kansas City Center
09:44PM 40.6203 -91.2061 65° Northeast 465 535 33,000 -420 Level Kansas City Center
09:45PM 40.6742 -91.0508 65° Northeast 468 539 32,200 -840 Descending Kansas City Center
09:46PM 40.7281 -90.8928 66° East 470 541 31,300 -960 Descending Kansas City Center
09:47PM 40.7819 -90.7331 66° East 474 545 30,300 -1,020 Descending Kansas City Center
09:48PM 40.8450 -90.5444 66° East 468 539 29,100 -960 Descending Chicago Center
09:49PM 40.8989 -90.3847 66° East 473 544 28,200 -1,080 Descending Chicago Center
09:50PM 40.9589 -90.2083 66° East 476 548 27,000 -1,260 Descending Chicago Center
09:52PM 41.0161 -90.0325 67° East 469 540 25,700 -1,200 Descending Chicago Center
09:53PM 41.0667 -89.8758 67° East 462 532 24,600 -840 Descending Chicago Center
09:54PM 41.1175 -89.7208 66° East 457 526 24,000 -480 Descending Chicago Center
09:55PM 41.1669 -89.5697 66° East 447 514 23,700 -1,200 Descending Chicago Center
09:56PM 41.2250 -89.4300 61° Northeast 434 499 21,600 -2,040 Descending Chicago Center
09:57PM 41.2797 -89.2942 62° Northeast 420 483 19,600 -1,980 Descending Chicago Center
09:58PM 41.3317 -89.1614 62° Northeast 401 461 17,600 -1,860 Descending Chicago Center
09:59PM 41.3800 -89.0369 63° Northeast 386 444 15,800 -1,740 Descending Chicago Center
10:00PM 41.4275 -88.9194 62° Northeast 369 425 14,100 -1,860 Descending Chicago Center
10:01PM 41.4817 -88.7831 62° Northeast 353 406 12,000 -1,560 Descending Chicago Center
10:02PM 41.5258 -88.6722 62° Northeast 344 396 11,000 -540 Descending Chicago Center
10:03PM 41.5675 -88.5681 62° Northeast 325 374 11,000  Level Chicago Center
10:04PM 41.6058 -88.4714 62° Northeast 304 350 11,000 -300 Level Chicago Center
10:05PM 41.6611 -88.4008 44° Northeast 290 334 10,400 -1,080 Descending Chicago Center
10:06PM 41.7336 -88.3653 20° North 279 321 8,900 -1,560 Descending Chicago Center
10:07PM 41.8058 -88.3319 19° North 276 318 7,300 -1,500 Descending Chicago Center
10:08PM 41.8775 -88.3003 18° North 273 314 5,900 -1,200 Descending Chicago Center
10:09PM 41.9436 -88.2689 19° North 259 298 4,900 -960 Descending Chicago Center
10:10PM 41.9686 -88.1744 70° East 239 275 4,000 -900 Descending Chicago Center